Time;durP1;ratioP1;P1;durP2;ratioP2;P2;SDS_P1;SDS_P2;PMS_P1;PMS_P2;Temp;Humidity;BMP_temperature;BMP_pressure;BME280_temperature;BME280_humidity;BME280_pressure;Samples;Min_cycle;Max_cycle;Signal;HPM_P1;HPM_P2
2021/04/20 00:02:45;;;;;;;15.50;13.27;;;;;;;10.94;62.64;97988.81;8380785;28;20211;-64
2021/04/20 00:06:47;;;;;;;15.37;13.77;;;;;;;10.90;62.71;97984.69;8362528;28;20206;-64
2021/04/20 00:10:49;;;;;;;15.10;13.60;;;;;;;10.88;62.63;97978.75;8362908;28;20705;-64
2021/04/20 00:14:51;;;;;;;15.90;14.07;;;;;;;10.81;62.95;97977.31;8362283;28;20220;-64
2021/04/20 00:18:54;;;;;;;15.43;13.83;;;;;;;10.84;62.96;97970.25;8362253;28;20204;-65
2021/04/20 00:22:56;;;;;;;16.53;14.17;;;;;;;10.95;62.54;97968.03;8362094;28;20211;-64
2021/04/20 00:26:58;;;;;;;16.40;13.60;;;;;;;10.94;62.43;97966.34;8361882;28;20655;-65
2021/04/20 00:31:00;;;;;;;15.33;13.83;;;;;;;10.85;63.01;97968.50;8361930;28;20236;-64
2021/04/20 00:35:04;;;;;;;16.70;14.43;;;;;;;10.90;62.91;97959.63;8361934;28;20199;-64
2021/04/20 00:39:06;;;;;;;16.87;15.07;;;;;;;10.85;62.79;97958.13;8362091;28;20203;-64
2021/04/20 00:43:08;;;;;;;16.30;14.63;;;;;;;10.92;62.74;97960.38;8362055;28;20529;-64
2021/04/20 00:47:10;;;;;;;16.33;14.73;;;;;;;10.85;63.00;97960.72;8362421;28;20204;-64
2021/04/20 00:51:14;;;;;;;16.93;15.23;;;;;;;10.86;62.91;97959.84;8361800;28;20822;-64
2021/04/20 00:55:16;;;;;;;16.70;15.07;;;;;;;10.82;63.10;97963.47;8361453;28;20196;-65
2021/04/20 00:59:18;;;;;;;15.87;14.30;;;;;;;10.80;62.67;97960.97;8388355;28;20206;-64
2021/04/20 01:03:20;;;;;;;16.60;14.90;;;;;;;10.73;63.02;97957.78;8394711;28;20199;-65
2021/04/20 01:07:23;;;;;;;16.10;14.50;;;;;;;10.76;62.94;97962.84;8394419;28;20203;-64
2021/04/20 01:11:25;;;;;;;15.97;14.40;;;;;;;10.70;63.25;97962.25;8394743;28;20230;-64
2021/04/20 01:15:27;;;;;;;17.37;15.57;;;;;;;10.78;63.00;97951.59;8394858;28;20236;-64
2021/04/20 01:19:30;;;;;;;17.87;16.07;;;;;;;10.81;63.05;97959.19;8400362;28;20203;-64
2021/04/20 01:23:46;;;;;;;17.53;15.67;;;;;;;10.77;63.19;97950.72;8401135;28;20517;-64
2021/04/20 01:27:48;;;;;;;18.50;16.60;;;;;;;10.71;63.19;97956.19;8400341;28;20207;-64
2021/04/20 01:31:51;;;;;;;18.33;16.53;;;;;;;10.74;63.16;97950.88;8400215;28;20636;-64
2021/04/20 01:35:54;;;;;;;17.17;15.47;;;;;;;10.76;63.21;97952.47;8400840;28;20607;-65
2021/04/20 01:39:56;;;;;;;17.33;15.73;;;;;;;10.67;63.57;97946.88;8399838;28;20207;-64
2021/04/20 01:43:59;;;;;;;17.60;15.70;;;;;;;10.69;63.61;97945.88;8399512;28;20575;-64
2021/04/20 01:48:01;;;;;;;17.83;16.17;;;;;;;10.73;62.86;97950.00;8399940;28;20199;-64
2021/04/20 01:52:04;;;;;;;18.10;16.30;;;;;;;10.70;63.32;97949.31;8399221;28;20234;-64
2021/04/20 01:56:07;;;;;;;18.90;15.77;;;;;;;10.70;62.71;97952.75;8399088;28;20199;-65
2021/04/20 02:00:12;;;;;;;17.10;15.40;;;;;;;10.65;63.09;97954.72;8398820;28;20215;-64
2021/04/20 02:04:14;;;;;;;18.10;16.20;;;;;;;10.68;62.95;97962.34;8399082;28;20203;-65
2021/04/20 02:08:16;;;;;;;15.83;14.30;;;;;;;10.69;62.80;97951.06;8399047;28;20509;-64
2021/04/20 02:12:18;;;;;;;16.37;14.40;;;;;;;10.69;62.85;97953.66;8399262;28;20250;-64
2021/04/20 02:16:22;;;;;;;16.50;14.90;;;;;;;10.63;62.95;97959.13;8398674;28;20535;-65
2021/04/20 02:20:25;;;;;;;16.70;15.20;;;;;;;10.63;62.93;97951.34;8398626;28;20203;-64
2021/04/20 02:24:26;;;;;;;17.13;15.53;;;;;;;10.60;63.08;97954.06;8398625;28;20210;-65
2021/04/20 02:28:31;;;;;;;17.40;15.70;;;;;;;10.65;62.94;97953.88;8398200;28;20214;-64
2021/04/20 02:32:35;;;;;;;17.43;15.63;;;;;;;10.62;62.95;97954.00;8397757;28;20253;-64
2021/04/20 02:36:38;;;;;;;17.30;15.50;;;;;;;10.64;63.17;97953.03;8397505;28;20203;-64
2021/04/20 02:40:40;;;;;;;18.73;16.57;;;;;;;10.61;62.85;97949.75;8397484;28;20226;-64
2021/04/20 02:44:42;;;;;;;18.17;16.40;;;;;;;10.64;62.99;97957.34;8397342;28;20208;-64
2021/04/20 02:48:45;;;;;;;18.77;16.87;;;;;;;10.61;62.71;97944.56;8397751;28;20209;-64
2021/04/20 02:52:49;;;;;;;17.67;15.97;;;;;;;10.55;62.77;97946.50;8397077;28;20241;-64
2021/04/20 02:56:51;;;;;;;17.70;16.07;;;;;;;10.54;62.69;97949.16;8396853;28;20203;-64
2021/04/20 03:00:57;;;;;;;18.00;16.30;;;;;;;10.53;62.69;97940.56;8397063;28;20713;-64
2021/04/20 03:05:00;;;;;;;18.70;16.87;;;;;;;10.49;62.60;97939.03;8397002;28;20206;-64
2021/04/20 03:09:03;;;;;;;17.90;16.10;;;;;;;10.46;62.87;97943.50;8396754;28;20230;-64
2021/04/20 03:13:05;;;;;;;16.93;15.33;;;;;;;10.45;62.52;97944.38;8396529;28;20673;-66
2021/04/20 03:17:07;;;;;;;18.47;16.70;;;;;;;10.42;62.59;97939.38;8396578;28;20227;-64
2021/04/20 03:21:12;;;;;;;18.20;16.50;;;;;;;10.35;62.58;97943.97;8396641;28;20203;-64
2021/04/20 03:25:19;;;;;;;19.43;15.87;;;;;;;10.37;62.78;97945.56;8396175;28;20195;-64
2021/04/20 03:29:23;;;;;;;21.57;19.47;;;;;;;10.37;62.68;97934.38;8387639;28;20238;-65
2021/04/20 03:33:28;;;;;;;20.43;18.37;;;;;;;10.40;62.30;97938.59;8383795;28;20306;-65
2021/04/20 03:37:34;;;;;;;18.33;16.53;;;;;;;10.36;62.67;97940.47;8374784;28;20210;-65
2021/04/20 03:41:41;;;;;;;18.17;16.20;;;;;;;10.34;62.55;97943.13;8395624;28;20199;-65
2021/04/20 03:45:49;;;;;;;17.77;15.97;;;;;;;10.32;62.59;97938.94;8386757;28;20668;-65
2021/04/20 03:49:54;;;;;;;17.47;15.77;;;;;;;10.33;62.47;97938.84;8362794;28;20203;-65
2021/04/20 03:54:03;;;;;;;19.30;17.40;;;;;;;10.26;62.32;97945.19;8362832;28;20203;-64
2021/04/20 03:58:05;;;;;;;18.53;16.77;;;;;;;10.22;62.02;97938.44;8379108;28;20603;-64
2021/04/20 04:02:07;;;;;;;17.63;15.97;;;;;;;10.22;61.88;97943.59;8392041;28;20245;-64
2021/04/20 04:06:10;;;;;;;20.17;18.20;;;;;;;10.21;62.10;97935.94;8363132;28;20294;-64
2021/04/20 04:10:14;;;;;;;20.73;18.60;;;;;;;10.21;62.08;97938.53;8362509;28;20265;-64
2021/04/20 04:14:17;;;;;;;20.57;18.57;;;;;;;10.32;62.16;97936.34;8362041;28;20705;-64
2021/04/20 04:18:22;;;;;;;23.67;19.23;;;;;;;10.29;61.90;97939.84;8362310;28;20199;-64
2021/04/20 04:22:26;;;;;;;19.63;17.63;;;;;;;10.31;61.84;97934.66;8362432;28;20600;-64
2021/04/20 04:26:36;;;;;;;19.17;17.10;;;;;;;10.27;62.07;97933.91;8374658;28;20274;-65
2021/04/20 04:30:40;;;;;;;17.83;16.13;;;;;;;10.30;61.88;97936.41;8404189;28;20231;-65
2021/04/20 04:34:42;;;;;;;18.60;16.80;;;;;;;10.23;62.10;97939.28;8395764;28;20627;-64
2021/04/20 04:38:45;;;;;;;19.47;17.30;;;;;;;10.18;62.30;97940.34;8371299;28;20211;-64
2021/04/20 04:42:48;;;;;;;19.30;17.13;;;;;;;10.27;61.91;97944.25;8362703;28;20630;-64
2021/04/20 04:46:50;;;;;;;19.30;17.30;;;;;;;10.23;61.81;97947.91;8363326;28;20259;-64
2021/04/20 04:50:53;;;;;;;21.10;18.80;;;;;;;10.22;61.60;97945.38;8362288;28;20219;-64
2021/04/20 04:54:55;;;;;;;19.87;17.43;;;;;;;10.15;61.75;97948.22;8368760;28;20207;-64
2021/04/20 04:59:00;;;;;;;19.27;17.20;;;;;;;10.26;61.37;97947.78;8368353;28;20221;-64
2021/04/20 05:03:02;;;;;;;18.63;16.83;;;;;;;10.24;61.54;97946.97;8373169;28;20214;-64
2021/04/20 05:07:04;;;;;;;20.77;17.47;;;;;;;10.36;61.25;97950.84;8399047;28;20203;-64
2021/04/20 05:11:06;;;;;;;19.97;17.87;;;;;;;10.35;61.26;97960.31;8387236;28;20234;-64
2021/04/20 05:15:12;;;;;;;19.93;18.03;;;;;;;10.35;61.19;97955.16;8365422;28;20277;-64
2021/04/20 05:19:19;;;;;;;20.93;18.73;;;;;;;10.44;61.10;97959.09;8365499;28;20279;-64
2021/04/20 05:23:20;;;;;;;21.43;19.23;;;;;;;10.50;60.89;97968.34;8364865;28;20220;-64
2021/04/20 05:27:22;;;;;;;22.87;20.57;;;;;;;10.61;60.66;97966.13;8365465;28;20203;-64
2021/04/20 05:31:25;;;;;;;21.87;19.57;;;;;;;10.70;60.12;97962.25;8395578;28;20266;-65
2021/04/20 05:35:27;;;;;;;22.57;20.37;;;;;;;10.72;60.30;97974.25;8396575;28;20207;-64
2021/04/20 05:39:29;;;;;;;21.87;19.67;;;;;;;10.93;60.13;97967.25;8372545;28;20203;-65
2021/04/20 05:43:31;;;;;;;21.40;19.30;;;;;;;10.99;60.24;97962.72;8366920;28;20207;-65
2021/04/20 05:47:34;;;;;;;22.63;20.20;;;;;;;11.09;60.31;97962.19;8373939;28;20211;-65
2021/04/20 05:51:40;;;;;;;24.23;15.00;;;;;;;13.00;60.31;97964.81;8400261;28;20226;-70
2021/04/20 05:55:42;;;;;;;17.77;15.97;;;;;;;13.96;53.93;97966.41;8394119;28;20737;-70
2021/04/20 05:59:44;;;;;;;20.63;18.40;;;;;;;14.39;51.19;97968.22;8403194;28;20603;-69
2021/04/20 06:03:47;;;;;;;25.93;19.70;;;;;;;14.58;50.35;97971.44;8395992;28;20203;-69
2021/04/20 06:07:52;;;;;;;21.23;19.13;;;;;;;14.96;49.03;97975.22;8380360;28;20212;-70
2021/04/20 06:11:54;;;;;;;22.70;20.33;;;;;;;15.07;48.67;97975.41;8365884;28;20224;-70
2021/04/20 06:15:56;;;;;;;25.63;23.00;;;;;;;14.36;50.28;97973.63;8363703;28;20301;-67
2021/04/20 06:19:59;;;;;;;21.43;19.33;;;;;;;14.51;51.32;97980.53;8364004;28;20207;-66
2021/04/20 06:24:02;;;;;;;28.50;25.47;;;;;;;14.44;50.55;97980.03;8382509;28;20487;-67
2021/04/20 06:28:04;;;;;;;29.87;21.97;;;;;;;14.61;50.28;97989.50;8395554;28;20239;-66
2021/04/20 06:32:09;;;;;;;28.13;25.13;;;;;;;14.72;50.43;97985.41;8364621;28;20235;-66
2021/04/20 06:36:12;;;;;;;27.20;24.13;;;;;;;14.73;50.42;97989.69;8365441;28;20200;-66
2021/04/20 06:40:20;;;;;;;30.73;19.43;;;;;;;15.56;48.53;97987.94;8378676;28;20203;-67
2021/04/20 06:44:40;;;;;;;32.27;22.33;;;;;;;16.01;46.90;97985.94;8369735;28;20231;-69
2021/04/20 06:48:44;;;;;;;27.23;21.30;;;;;;;16.42;46.07;97979.69;8367851;28;20208;-69
2021/04/20 06:52:51;;;;;;;24.63;22.17;;;;;;;16.63;45.41;97987.00;8365446;28;20266;-68
2021/04/20 06:56:58;;;;;;;31.90;26.40;;;;;;;16.01;46.82;97979.84;8367756;28;20572;-67
2021/04/20 07:01:02;;;;;;;29.53;26.30;;;;;;;16.01;47.74;97990.28;8394738;28;20214;-66
2021/04/20 07:05:08;;;;;;;41.43;26.03;;;;;;;16.02;47.80;97992.81;8396272;28;20203;-66
2021/04/20 07:09:15;;;;;;;32.60;26.37;;;;;;;15.84;48.42;97991.44;8397318;28;20525;-66
2021/04/20 07:13:19;;;;;;;35.57;27.27;;;;;;;15.88;47.97;97992.03;8397495;28;20211;-66
2021/04/20 07:18:04;;;;;;;29.67;26.67;;;;;;;15.81;48.26;97983.78;8397105;28;20573;-66
2021/04/20 07:22:49;;;;;;;31.53;27.77;;;;;;;15.97;48.76;97987.06;8397324;28;20199;-66
2021/04/20 07:27:06;;;;;;;31.53;28.33;;;;;;;16.14;46.29;97985.94;8384663;28;20230;-65
2021/04/20 07:31:10;;;;;;;31.70;28.40;;;;;;;16.03;48.25;97991.06;8397491;28;20542;-62
2021/04/20 07:35:16;;;;;;;30.53;27.30;;;;;;;16.23;46.96;97981.88;8386914;28;20208;-65
2021/04/20 07:39:20;;;;;;;30.20;27.30;;;;;;;16.13;48.02;97973.81;8363791;28;20207;-64
2021/04/20 07:43:31;;;;;;;32.63;29.23;;;;;;;16.52;46.69;97979.88;8388850;28;20226;-64
2021/04/20 07:47:41;;;;;;;32.23;28.73;;;;;;;16.67;46.99;97978.00;8396420;28;20199;-64
2021/04/20 07:51:50;;;;;;;31.27;28.13;;;;;;;16.87;45.18;97974.06;8396820;28;20685;-64
2021/04/20 07:55:56;;;;;;;32.73;29.23;;;;;;;17.06;45.25;97984.06;8388065;28;20215;-64
2021/04/20 08:00:06;;;;;;;34.93;30.07;;;;;;;16.89;45.34;97974.78;8379309;28;20214;-64
2021/04/20 08:04:13;;;;;;;33.90;30.10;;;;;;;16.58;46.90;97974.25;8388370;28;20580;-65
2021/04/20 08:08:19;;;;;;;33.93;30.43;;;;;;;16.74;46.19;97971.41;8398496;28;20195;-64
2021/04/20 08:12:25;;;;;;;34.13;30.43;;;;;;;16.92;45.30;97979.78;8394840;28;20219;-64
2021/04/20 08:16:30;;;;;;;34.03;30.60;;;;;;;17.32;45.84;97974.31;8374524;28;20224;-63
2021/04/20 08:20:32;;;;;;;35.30;31.60;;;;;;;17.00;47.19;97974.00;8363215;28;20737;-64
2021/04/20 08:24:41;;;;;;;34.77;31.07;;;;;;;17.37;45.32;97974.03;8361555;28;20283;-63
2021/04/20 08:28:47;;;;;;;35.77;32.07;;;;;;;17.00;45.92;97974.88;8361620;28;20239;-64
2021/04/20 08:32:51;;;;;;;35.80;31.87;;;;;;;16.50;47.46;97967.88;8377659;28;20238;-64
2021/04/20 08:36:59;;;;;;;36.17;32.10;;;;;;;16.68;46.45;97968.38;8395341;28;20332;-64
2021/04/20 08:41:06;;;;;;;34.70;31.00;;;;;;;16.41;46.95;97962.34;8395462;28;20658;-64
2021/04/20 08:45:11;;;;;;;35.90;32.13;;;;;;;16.08;47.96;97962.00;8394383;28;20199;-64
2021/04/20 08:49:22;;;;;;;35.73;31.83;;;;;;;17.45;45.95;97963.81;8393858;28;20575;-65
2021/04/20 08:53:37;;;;;;;36.63;32.83;;;;;;;18.01;43.71;97963.25;8393202;28;20231;-65
2021/04/20 08:57:52;;;;;;;37.27;33.27;;;;;;;18.40;43.90;97960.34;8394236;28;20531;-67
2021/04/20 09:02:21;;;;;;;37.20;33.33;;;;;;;18.40;41.86;97955.94;8395137;28;20203;-71
2021/04/20 09:06:29;;;;;;;36.97;33.07;;;;;;;18.31;42.62;97957.47;8397583;28;20278;-65
2021/04/20 09:10:35;;;;;;;35.77;31.97;;;;;;;18.35;42.37;97955.44;8394255;28;20218;-65
2021/04/20 09:14:39;;;;;;;35.57;31.90;;;;;;;19.15;39.92;97962.38;8394185;28;20227;-64
2021/04/20 09:18:49;;;;;;;34.00;30.43;;;;;;;18.91;39.04;97963.38;8393974;28;20282;-65
2021/04/20 09:22:58;;;;;;;30.93;27.90;;;;;;;19.54;36.70;97960.97;8393911;28;20207;-66
2021/04/20 09:27:07;;;;;;;31.30;28.13;;;;;;;17.90;40.16;97960.59;8393748;28;20203;-65
2021/04/20 09:31:12;;;;;;;28.37;25.53;;;;;;;18.80;39.19;97962.53;8389967;28;20234;-66
2021/04/20 09:35:15;;;;;;;29.53;26.53;;;;;;;18.37;39.64;97961.41;8375280;28;20220;-65
2021/04/20 09:39:20;;;;;;;30.20;27.10;;;;;;;18.74;38.45;97953.34;8396388;28;20210;-65
2021/04/20 09:43:29;;;;;;;27.67;24.73;;;;;;;19.42;37.84;97955.88;8369651;28;20287;-66
2021/04/20 09:47:57;;;;;;;28.30;25.40;;;;;;;19.02;37.79;97959.91;8366648;28;20195;-65
2021/04/20 09:52:01;;;;;;;25.93;23.33;;;;;;;19.67;36.25;97950.31;8371588;28;20674;-65
2021/04/20 09:56:18;;;;;;;28.43;25.73;;;;;;;18.46;37.99;97959.88;8396907;28;20195;-65
2021/04/20 10:00:21;;;;;;;28.47;25.47;;;;;;;19.12;37.58;97950.34;8399552;28;20526;-67
2021/04/20 10:04:34;;;;;;;28.90;26.03;;;;;;;19.97;36.75;97955.81;8399114;28;20248;-66
2021/04/20 10:08:43;;;;;;;24.47;21.87;;;;;;;20.21;33.88;97945.88;8372180;28;20226;-66
2021/04/20 10:13:00;;;;;;;22.77;20.57;;;;;;;20.77;35.26;97951.72;8366929;28;20227;-64
2021/04/20 10:17:10;;;;;;;23.97;21.57;;;;;;;20.96;33.42;97946.53;8369009;28;20233;-64
2021/04/20 10:21:20;;;;;;;23.97;21.60;;;;;;;20.67;31.89;97949.88;8366143;28;20215;-64
2021/04/20 10:25:29;;;;;;;26.30;23.50;;;;;;;20.87;34.71;97950.78;8387358;28;20922;-66
2021/04/20 10:29:35;;;;;;;80.47;25.23;;;;;;;21.21;34.83;97945.22;8395297;28;20316;-64
2021/04/20 10:33:40;;;;;;;27.13;24.33;;;;;;;21.12;33.03;97937.31;8384925;28;20226;-64
2021/04/20 10:37:46;;;;;;;28.03;24.87;;;;;;;21.21;33.99;97937.31;8385811;28;20632;-63
2021/04/20 10:41:48;;;;;;;25.43;22.93;;;;;;;21.34;33.72;97926.50;8376042;28;20663;-63
2021/04/20 10:45:52;;;;;;;24.10;21.50;;;;;;;21.42;32.21;97928.47;8371701;28;20252;-69
2021/04/20 10:49:57;;;;;;;27.23;20.40;;;;;;;22.05;32.36;97926.25;8394724;28;20212;-69
2021/04/20 10:53:59;;;;;;;23.80;18.30;;;;;;;22.18;32.04;97917.19;8366448;28;20238;-67
2021/04/20 10:58:04;;;;;;;21.47;19.20;;;;;;;22.29;31.85;97917.06;8382439;28;20199;-69
2021/04/20 11:02:10;;;;;;;21.23;18.97;;;;;;;21.31;32.97;97912.81;8397880;28;20203;-68
2021/04/20 11:06:49;;;;;;;24.60;19.30;;;;;;;21.26;33.22;97910.56;8398113;28;20625;-66
2021/04/20 11:10:51;;;;;;;20.27;18.10;;;;;;;20.51;35.01;97904.78;8395165;28;20209;-67
2021/04/20 11:14:54;;;;;;;21.37;19.17;;;;;;;21.51;31.41;97895.22;8397938;28;20227;-67
2021/04/20 11:19:02;;;;;;;19.07;17.17;;;;;;;21.92;32.10;97896.72;8398511;28;20205;-67
2021/04/20 11:23:18;;;;;;;21.00;18.90;;;;;;;21.45;29.38;97893.97;8392732;28;20207;-69
2021/04/20 11:27:22;;;;;;;16.13;14.50;;;;;;;21.80;30.52;97892.56;8370724;28;20573;-68
2021/04/20 11:31:30;;;;;;;16.07;14.17;;;;;;;21.99;29.43;97886.41;8393627;28;20228;-64
2021/04/20 11:35:33;;;;;;;17.60;15.23;;;;;;;21.05;31.75;97884.34;8396434;28;20245;-65
2021/04/20 11:39:37;;;;;;;16.07;13.77;;;;;;;21.83;29.93;97874.66;8393723;28;20237;-63
2021/04/20 11:43:39;;;;;;;16.80;14.93;;;;;;;22.25;30.32;97882.22;8396163;28;20203;-64
2021/04/20 11:47:55;;;;;;;18.47;14.37;;;;;;;22.45;28.19;97866.34;8395974;28;20199;-63
2021/04/20 11:51:59;;;;;;;16.17;14.43;;;;;;;22.57;29.76;97872.25;8389920;28;20701;-66
2021/04/20 11:56:03;;;;;;;18.37;16.17;;;;;;;22.65;29.08;97865.25;8394238;28;20198;-65
2021/04/20 12:00:06;;;;;;;18.37;16.57;;;;;;;21.51;31.08;97867.06;8393337;28;20197;-64
2021/04/20 12:04:08;;;;;;;13.43;12.03;;;;;;;22.19;29.95;97871.41;8388540;28;20208;-66
2021/04/20 12:08:24;;;;;;;20.13;14.70;;;;;;;22.01;28.47;97863.41;8394288;28;20202;-66
2021/04/20 12:12:27;;;;;;;15.57;12.00;;;;;;;21.65;31.20;97852.66;8393451;28;20218;-68
2021/04/20 12:16:33;;;;;;;16.43;13.50;;;;;;;21.62;29.51;97845.84;8395583;28;20300;-67
2021/04/20 12:20:36;;;;;;;15.60;11.93;;;;;;;22.43;28.71;97849.81;8396481;28;20708;-66
2021/04/20 12:24:40;;;;;;;14.60;11.83;;;;;;;22.63;28.23;97845.28;8396050;28;20288;-67
2021/04/20 12:28:46;;;;;;;14.70;10.17;;;;;;;22.63;28.50;97848.72;8395666;28;20199;-67
2021/04/20 12:32:49;;;;;;;15.27;13.67;;;;;;;22.45;25.35;97845.22;8395191;28;20236;-67
2021/04/20 12:36:52;;;;;;;16.37;13.73;;;;;;;22.37;26.02;97839.84;8395585;28;20196;-66
2021/04/20 12:40:57;;;;;;;46.93;12.97;;;;;;;21.99;28.47;97834.53;8395836;28;20205;-65
2021/04/20 12:45:06;;;;;;;15.23;13.60;;;;;;;22.42;28.12;97835.78;8389309;28;20229;-66
2021/04/20 12:49:09;;;;;;;12.00;10.90;;;;;;;22.30;26.88;97815.84;8395932;28;20207;-65
2021/04/20 12:53:13;;;;;;;13.37;11.97;;;;;;;22.64;28.18;97817.91;8396033;28;20219;-64
2021/04/20 12:57:19;;;;;;;15.10;13.17;;;;;;;22.80;27.49;97818.06;8396280;28;20511;-65
2021/04/20 13:01:22;;;;;;;14.77;13.27;;;;;;;22.69;26.41;97817.47;8396483;28;20198;-65
2021/04/20 13:05:27;;;;;;;14.47;12.97;;;;;;;22.81;27.24;97800.44;8371545;28;20206;-65
2021/04/20 13:09:31;;;;;;;14.00;11.50;;;;;;;22.95;27.61;97801.72;8395845;28;20203;-63
2021/04/20 13:13:33;;;;;;;13.93;11.80;;;;;;;22.68;26.86;97799.97;8399095;28;20234;-63
2021/04/20 13:17:36;;;;;;;12.80;10.70;;;;;;;22.73;27.18;97790.63;8401485;28;20223;-63
2021/04/20 13:21:41;;;;;;;16.77;13.03;;;;;;;22.44;27.53;97794.25;8398734;28;20305;-63
2021/04/20 13:25:48;;;;;;;14.90;13.40;;;;;;;22.30;28.80;97791.28;8384035;28;20299;-63
2021/04/20 13:29:51;;;;;;;15.47;13.83;;;;;;;22.06;28.51;97785.50;8382707;28;20258;-63
2021/04/20 13:33:54;;;;;;;19.07;14.67;;;;;;;21.97;29.21;97781.13;8383447;28;20683;-63
2021/04/20 13:37:58;;;;;;;17.60;13.63;;;;;;;22.27;27.78;97784.50;8373153;28;20342;-63
2021/04/20 13:42:02;;;;;;;15.97;13.57;;;;;;;22.35;29.32;97778.47;8404591;28;20554;-65
2021/04/20 13:46:06;;;;;;;15.37;13.17;;;;;;;22.27;28.06;97776.56;8403001;28;20638;-64
2021/04/20 13:50:09;;;;;;;13.80;12.50;;;;;;;22.49;28.22;97780.63;8386876;28;20211;-66
2021/04/20 13:54:12;;;;;;;14.70;12.87;;;;;;;22.22;28.29;97771.72;8381607;28;20250;-64
2021/04/20 13:58:23;;;;;;;15.80;14.17;;;;;;;22.29;27.72;97761.44;8376684;28;20196;-63
2021/04/20 14:02:32;;;;;;;15.83;11.10;;;;;;;22.44;28.36;97761.78;8382334;28;20215;-65
2021/04/20 14:06:46;;;;;;;13.27;11.63;;;;;;;22.43;28.34;97758.31;8387011;28;20735;-64
2021/04/20 14:10:52;;;;;;;12.67;11.40;;;;;;;22.34;28.24;97755.72;8434032;28;20213;-63
2021/04/20 14:14:58;;;;;;;13.67;12.07;;;;;;;22.28;28.65;97756.31;8434492;28;20249;-63
2021/04/20 14:19:01;;;;;;;16.10;12.20;;;;;;;22.17;28.88;97749.41;8434797;28;20205;-64
2021/04/20 14:23:06;;;;;;;14.33;12.93;;;;;;;22.05;29.30;97754.03;8433481;28;20555;-63
2021/04/20 14:27:10;;;;;;;16.00;13.07;;;;;;;21.96;29.05;97747.00;8458119;28;20202;-69
2021/04/20 14:31:12;;;;;;;12.67;11.10;;;;;;;22.43;28.17;97741.66;8438240;28;20587;-63
2021/04/20 14:35:24;;;;;;;13.70;10.83;;;;;;;22.11;27.80;97739.44;8415839;28;20295;-63
2021/04/20 14:39:33;;;;;;;14.03;11.50;;;;;;;21.52;29.80;97737.00;8411022;28;20680;-63
2021/04/20 14:43:42;;;;;;;14.70;12.70;;;;;;;21.11;30.71;97727.63;8420928;28;20205;-64
2021/04/20 14:47:49;;;;;;;13.60;12.20;;;;;;;20.94;30.89;97735.25;8413643;28;20235;-63
2021/04/20 14:51:57;;;;;;;14.87;13.40;;;;;;;20.55;30.12;97729.94;8409649;28;20683;-63
2021/04/20 14:56:03;;;;;;;13.27;11.97;;;;;;;20.50;31.03;97735.63;8402533;28;20279;-65
2021/04/20 15:00:17;;;;;;;13.83;12.43;;;;;;;20.31;30.69;97730.31;8423232;28;20189;-67
2021/04/20 15:04:31;;;;;;;13.30;11.90;;;;;;;19.94;32.17;97730.06;8429489;28;20208;-67
2021/04/20 15:08:41;;;;;;;13.10;11.03;;;;;;;19.67;32.75;97727.03;8425565;28;20197;-67
2021/04/20 15:12:53;;;;;;;11.80;10.60;;;;;;;19.71;32.95;97725.78;8427578;28;20230;-65
2021/04/20 15:17:02;;;;;;;12.13;11.00;;;;;;;19.62;31.93;97726.56;8418029;28;20827;-66
2021/04/20 15:21:14;;;;;;;11.80;9.20;;;;;;;19.53;32.56;97728.22;8408861;28;20328;-65
2021/04/20 15:25:23;;;;;;;10.50;9.40;;;;;;;19.20;32.11;97733.66;8408752;28;20577;-65
2021/04/20 15:29:28;;;;;;;12.40;9.17;;;;;;;19.33;32.00;97732.50;8401617;28;20321;-65
2021/04/20 15:33:34;;;;;;;14.67;10.03;;;;;;;19.00;32.72;97730.06;8397500;28;20600;-65
2021/04/20 15:37:36;;;;;;;11.37;8.73;;;;;;;19.09;32.31;97735.38;8397116;28;20255;-65
2021/04/20 15:41:41;;;;;;;10.70;8.70;;;;;;;18.92;32.41;97733.31;8397986;28;20674;-66
2021/04/20 15:45:45;;;;;;;11.13;9.10;;;;;;;19.00;32.93;97735.28;8397048;28;20198;-65
2021/04/20 15:49:50;;;;;;;11.23;9.60;;;;;;;18.93;32.25;97733.19;8397190;28;20200;-65
2021/04/20 15:53:55;;;;;;;9.93;8.80;;;;;;;18.82;33.04;97732.41;8396285;28;20255;-66
2021/04/20 15:57:59;;;;;;;10.00;9.00;;;;;;;18.68;33.31;97725.66;8396468;28;20208;-66
2021/04/20 16:02:03;;;;;;;10.07;8.33;;;;;;;18.45;33.03;97724.84;8396553;28;20218;-65
2021/04/20 16:06:06;;;;;;;11.70;10.50;;;;;;;18.35;33.40;97728.22;8382379;28;20212;-64
2021/04/20 16:10:08;;;;;;;12.10;11.00;;;;;;;18.17;33.52;97729.69;8376214;28;20670;-65
2021/04/20 16:14:12;;;;;;;11.37;10.30;;;;;;;18.10;34.52;97731.13;8367733;28;20226;-65
2021/04/20 16:18:24;;;;;;;11.97;10.43;;;;;;;18.28;34.14;97718.38;8424550;28;20195;-66
2021/04/20 16:22:27;;;;;;;11.10;10.10;;;;;;;18.26;33.23;97723.72;8395154;28;20211;-65
2021/04/20 16:26:30;;;;;;;11.20;10.03;;;;;;;18.36;34.09;97719.41;8395363;28;21402;-66
2021/04/20 16:30:33;;;;;;;12.23;10.93;;;;;;;18.16;33.97;97715.75;8395690;28;20284;-66
2021/04/20 16:34:36;;;;;;;12.37;11.17;;;;;;;18.19;33.81;97719.09;8394431;28;20585;-65
2021/04/20 16:38:57;;;;;;;14.63;12.43;;;;;;;18.17;33.86;97709.53;8394508;28;20210;-65
2021/04/20 16:43:17;;;;;;;42.50;26.30;;;;;;;18.25;33.72;97713.34;8395642;28;20235;-65
2021/04/20 16:47:40;;;;;;;13.13;10.83;;;;;;;18.11;33.67;97711.84;8367165;28;20673;-65
2021/04/20 16:51:49;;;;;;;12.52;11.23;;;;;;;18.54;33.53;97711.84;8366709;28;20780;-64
2021/04/20 16:56:04;;;;;;;13.70;11.97;;;;;;;18.02;34.95;97721.25;8368620;28;20624;-63
2021/04/20 17:00:20;;;;;;;13.53;11.83;;;;;;;17.98;34.46;97718.03;8368910;28;20194;-63
2021/04/20 17:04:28;;;;;;;13.07;11.33;;;;;;;17.99;34.79;97721.47;8368444;28;20681;-64
2021/04/20 17:08:34;;;;;;;11.87;10.67;;;;;;;18.00;34.95;97728.41;8367973;28;20204;-63
2021/04/20 17:12:40;;;;;;;10.67;9.63;;;;;;;18.00;35.33;97725.78;8369395;28;20218;-63
2021/04/20 17:17:09;;;;;;;14.20;10.03;;;;;;;17.91;35.60;97722.06;8368341;28;20223;-65
2021/04/20 17:21:53;;;;;;;14.77;10.33;;;;;;;17.85;36.48;97722.56;8376771;28;20531;-66
2021/04/20 17:26:00;;;;;;;13.17;10.83;;;;;;;17.78;37.27;97727.44;8364095;28;20281;-65
2021/04/20 17:30:06;;;;;;;11.23;10.13;;;;;;;17.87;36.36;97733.75;8367873;28;20243;-66
2021/04/20 17:34:14;;;;;;;11.90;10.70;;;;;;;17.70;37.61;97728.97;8368777;28;20247;-65
2021/04/20 17:38:30;;;;;;;13.43;10.27;;;;;;;17.52;37.56;97734.66;8368343;28;20252;-65
2021/04/20 17:42:39;;;;;;;12.43;10.83;;;;;;;17.36;38.30;97742.84;8369146;28;20623;-65
2021/04/20 17:46:45;;;;;;;11.83;10.43;;;;;;;17.39;38.68;97737.38;8367933;28;20189;-65
2021/04/20 17:50:53;;;;;;;14.27;12.70;;;;;;;17.37;38.61;97736.66;8368434;28;20601;-65
2021/04/20 17:55:03;;;;;;;13.43;10.73;;;;;;;17.29;38.62;97744.25;8368482;28;20215;-64
2021/04/20 17:59:23;;;;;;;16.33;10.87;;;;;;;17.14;39.35;97740.19;8365163;28;20616;-66
2021/04/20 18:03:50;;;;;;;12.10;10.80;;;;;;;17.21;39.65;97749.25;8367409;28;20670;-65
2021/04/20 18:08:06;;;;;;;12.17;10.77;;;;;;;17.08;39.55;97743.25;8367425;28;20188;-64
2021/04/20 18:12:30;;;;;;;13.60;9.93;;;;;;;17.03;39.54;97740.97;8407736;28;20218;-65
2021/04/20 18:16:40;;;;;;;16.23;10.50;;;;;;;16.79;39.57;97756.66;8433461;28;20681;-65
2021/04/20 18:20:48;;;;;;;11.43;9.67;;;;;;;16.75;40.19;97766.53;8434373;28;20630;-64
2021/04/20 18:24:52;;;;;;;13.40;10.03;;;;;;;16.63;41.52;97770.00;8434841;28;20273;-65
2021/04/20 18:29:05;;;;;;;14.70;10.50;;;;;;;16.61;42.26;97770.13;8433369;28;20209;-65
2021/04/20 18:33:15;;;;;;;12.23;10.90;;;;;;;16.57;42.56;97775.69;8433107;28;20210;-65
2021/04/20 18:37:22;;;;;;;14.80;10.33;;;;;;;16.48;42.91;97777.16;8433548;28;20191;-65
2021/04/20 18:41:29;;;;;;;12.97;11.03;;;;;;;16.47;43.12;97783.34;8434302;28;20233;-65
2021/04/20 18:45:33;;;;;;;14.20;11.80;;;;;;;16.46;43.23;97786.06;8434980;28;20205;-64
2021/04/20 18:49:46;;;;;;;14.37;12.43;;;;;;;16.54;42.72;97791.56;8433728;28;20202;-65
2021/04/20 18:54:00;;;;;;;12.00;10.67;;;;;;;16.30;43.74;97796.78;8433117;28;20225;-65